createdAt,value
2023-04-18T00:02:11.134Z,6.53
2023-04-18T00:04:58.211Z,6.22
2023-04-18T00:07:45.786Z,7.38
2023-04-18T00:10:33.213Z,6.60
2023-04-18T00:13:20.136Z,5.78
2023-04-18T00:16:08.676Z,6.40
2023-04-18T00:18:57.181Z,6.38
2023-04-18T00:21:44.997Z,6.32
2023-04-18T00:24:32.132Z,5.70
2023-04-18T00:27:19.339Z,6.32
2023-04-18T00:30:07.217Z,5.15
2023-04-18T00:32:54.183Z,6.10
2023-04-18T00:35:41.128Z,6.28
2023-04-18T00:38:28.059Z,4.93
2023-04-18T00:41:15.392Z,6.22
2023-04-18T00:44:02.430Z,5.85
2023-04-18T00:46:49.332Z,5.80
2023-04-18T00:49:36.507Z,5.88
2023-04-18T00:52:27.066Z,6.00
2023-04-18T00:55:14.508Z,5.65
2023-04-18T00:58:01.644Z,5.65
2023-04-18T01:00:48.750Z,5.65
2023-04-18T01:03:37.440Z,5.50
2023-04-18T01:06:25.565Z,5.57
2023-04-18T01:09:13.955Z,6.60
2023-04-18T01:12:01.832Z,5.25
2023-04-18T01:14:48.807Z,6.35
2023-04-18T01:17:35.803Z,6.63
2023-04-18T01:20:23.250Z,6.80
2023-04-18T01:23:12.767Z,5.35
2023-04-18T01:25:59.738Z,6.28
2023-04-18T01:28:46.698Z,6.00
2023-04-18T01:31:37.824Z,5.40
2023-04-18T01:34:24.830Z,6.05
2023-04-18T01:37:11.838Z,14.82
2023-04-18T01:39:59.980Z,8.60
2023-04-18T01:42:46.920Z,27.60
2023-04-18T01:45:33.864Z,13.98
2023-04-18T01:48:20.778Z,18.63
2023-04-18T01:51:07.648Z,8.65
2023-04-18T01:53:54.517Z,12.00
2023-04-18T01:56:41.481Z,94.28
2023-04-18T01:59:28.441Z,41.03
2023-04-18T02:02:15.582Z,25.95
2023-04-18T02:05:02.706Z,22.45
2023-04-18T02:07:50.362Z,18.48
2023-04-18T02:10:37.991Z,14.27
2023-04-18T02:13:24.947Z,11.13
2023-04-18T02:16:13.176Z,12.85
2023-04-18T02:19:00.252Z,20.00
2023-04-18T02:21:47.164Z,26.15
2023-04-18T02:24:34.109Z,18.13
2023-04-18T02:27:20.953Z,25.85
2023-04-18T02:30:08.511Z,27.30
2023-04-18T02:32:59.291Z,23.33
2023-04-18T02:35:46.409Z,15.13
2023-04-18T02:38:33.299Z,11.70
2023-04-18T02:41:20.480Z,10.70
2023-04-18T02:44:08.648Z,10.20
2023-04-18T02:46:55.613Z,11.25
2023-04-18T02:49:42.514Z,12.23
2023-04-18T02:52:31.151Z,10.13
2023-04-18T02:55:18.200Z,8.55
2023-04-18T02:58:05.232Z,10.13
2023-04-18T03:00:56.167Z,11.85
2023-04-18T03:03:43.176Z,13.27
2023-04-18T03:06:30.072Z,12.57
2023-04-18T03:09:17.108Z,11.65
2023-04-18T03:12:04.176Z,11.05
2023-04-18T03:14:51.218Z,12.30
2023-04-18T03:17:38.234Z,12.73
2023-04-18T03:20:25.417Z,12.18
2023-04-18T03:23:12.294Z,10.85
2023-04-18T03:25:59.313Z,10.23
2023-04-18T03:28:46.193Z,10.57
2023-04-18T03:31:33.548Z,10.02
2023-04-18T03:34:20.776Z,9.80
2023-04-18T03:37:07.654Z,11.13
2023-04-18T03:39:54.949Z,12.18
2023-04-18T03:42:41.817Z,10.68
2023-04-18T03:45:28.710Z,11.80
2023-04-18T03:48:15.900Z,11.05
2023-04-18T03:51:03.297Z,13.07
2023-04-18T03:53:50.391Z,12.98
2023-04-18T03:56:37.465Z,12.20
2023-04-18T03:59:24.385Z,14.73
2023-04-18T04:02:11.317Z,14.20
2023-04-18T04:04:58.241Z,17.58
2023-04-18T04:07:45.253Z,22.55
2023-04-18T04:10:32.138Z,19.20
2023-04-18T04:13:19.025Z,20.77
2023-04-18T04:16:06.860Z,18.67
2023-04-18T04:18:53.795Z,19.42
2023-04-18T04:21:40.732Z,18.05
2023-04-18T04:24:29.119Z,23.92
2023-04-18T04:27:18.799Z,23.73
2023-04-18T04:30:07.390Z,23.27
2023-04-18T04:32:54.607Z,25.30
2023-04-18T04:35:41.796Z,20.90
2023-04-18T04:38:31.022Z,17.42
2023-04-18T04:41:18.396Z,16.08
2023-04-18T04:44:05.661Z,15.38
2023-04-18T04:46:54.374Z,13.00
2023-04-18T04:49:41.341Z,13.43
2023-04-18T04:52:28.210Z,12.93
2023-04-18T04:55:15.735Z,11.82
2023-04-18T04:58:02.672Z,12.45
2023-04-18T05:00:52.448Z,14.45
2023-04-18T05:03:39.625Z,18.60
2023-04-18T05:06:26.893Z,14.35
2023-04-18T05:09:13.834Z,12.85
2023-04-18T05:12:01.924Z,12.63
2023-04-18T05:14:48.814Z,14.70
2023-04-18T05:17:35.776Z,14.02
2023-04-18T05:20:22.962Z,14.02
2023-04-18T05:23:09.860Z,14.90
2023-04-18T05:25:56.870Z,14.65
2023-04-18T05:28:43.844Z,14.98
2023-04-18T05:31:31.120Z,14.27
2023-04-18T05:34:18.115Z,14.15
2023-04-18T05:37:05.022Z,13.82
2023-04-18T05:39:51.972Z,13.95
2023-04-18T05:42:38.895Z,12.63
2023-04-18T05:45:25.820Z,14.60
2023-04-18T05:48:13.418Z,15.30
2023-04-18T05:51:00.951Z,14.23
2023-04-18T05:53:47.892Z,14.02
2023-04-18T05:56:34.867Z,16.80
2023-04-18T05:59:21.912Z,18.92
2023-04-18T06:02:13.421Z,17.73
2023-04-18T06:05:01.588Z,17.30
2023-04-18T06:07:48.682Z,16.85
2023-04-18T06:10:37.714Z,16.48
2023-04-18T06:13:25.976Z,16.52
2023-04-18T06:16:13.164Z,17.20
2023-04-18T06:19:01.417Z,17.75
2023-04-18T06:21:49.242Z,17.00
2023-04-18T06:24:37.417Z,17.25
2023-04-18T06:27:31.442Z,16.75
2023-04-18T06:30:21.925Z,16.70
2023-04-18T06:33:12.058Z,16.23
2023-04-18T06:35:59.214Z,15.27
2023-04-18T06:38:46.140Z,17.42
2023-04-18T06:41:33.111Z,17.20
2023-04-18T06:44:20.070Z,19.52
2023-04-18T06:47:07.077Z,19.00
2023-04-18T06:49:54.000Z,18.80
2023-04-18T06:52:44.530Z,19.25
2023-04-18T06:55:31.557Z,25.70
2023-04-18T06:58:18.497Z,19.77
2023-04-18T07:01:05.599Z,18.33
2023-04-18T07:03:52.793Z,18.45
2023-04-18T07:06:39.826Z,18.13
2023-04-18T07:09:26.847Z,19.83
2023-04-18T07:12:13.793Z,18.58
2023-04-18T07:15:00.713Z,21.00
2023-04-18T07:17:47.615Z,18.45
2023-04-18T07:20:34.623Z,20.17
2023-04-18T07:23:21.530Z,20.50
2023-04-18T07:26:09.968Z,17.75
2023-04-18T07:28:56.907Z,17.45
2023-04-18T07:31:43.898Z,17.27
2023-04-18T07:34:30.833Z,17.70
2023-04-18T07:37:19.015Z,16.67
2023-04-18T07:40:06.849Z,15.05
2023-04-18T07:42:53.798Z,16.25
2023-04-18T07:45:43.170Z,15.35
2023-04-18T07:48:30.273Z,16.30
2023-04-18T07:51:17.240Z,17.27
2023-04-18T07:54:04.312Z,16.15
2023-04-18T07:56:51.224Z,14.88
2023-04-18T07:59:38.130Z,14.73
2023-04-18T08:02:25.262Z,15.38
2023-04-18T08:05:12.400Z,14.73
2023-04-18T08:07:59.264Z,14.93
2023-04-18T08:10:46.198Z,13.68
2023-04-18T08:13:33.132Z,14.85
2023-04-18T08:16:20.093Z,14.70
2023-04-18T08:19:08.125Z,14.63
2023-04-18T08:22:06.678Z,14.93
2023-04-18T08:27:44.465Z,16.58
2023-04-18T08:30:31.645Z,16.10
2023-04-18T08:33:18.888Z,14.80
2023-04-18T08:36:06.371Z,15.32
2023-04-18T08:38:53.391Z,15.52
2023-04-18T08:41:43.440Z,15.23
2023-04-18T08:44:30.665Z,16.05
2023-04-18T08:47:19.215Z,17.40
2023-04-18T08:50:07.705Z,15.85
2023-04-18T08:52:55.352Z,16.20
2023-04-18T08:55:44.455Z,16.98
2023-04-18T08:58:32.378Z,18.33
2023-04-18T09:01:19.430Z,16.42
2023-04-18T09:04:06.415Z,17.63
2023-04-18T09:06:53.376Z,17.42
2023-04-18T09:09:54.912Z,18.95
2023-04-18T09:12:50.595Z,17.13
2023-04-18T09:15:37.671Z,19.13
2023-04-18T09:18:24.614Z,19.40
2023-04-18T09:21:19.447Z,18.52
2023-04-18T09:24:29.188Z,17.85
2023-04-18T09:27:16.127Z,17.00
2023-04-18T09:30:03.179Z,16.67
2023-04-18T09:32:57.408Z,16.65
2023-04-18T09:35:44.456Z,16.75
2023-04-18T09:38:41.124Z,15.63
2023-04-18T09:41:30.514Z,14.45
2023-04-18T09:44:17.719Z,14.82
2023-04-18T09:47:06.786Z,16.27
2023-04-18T09:49:54.028Z,15.30
2023-04-18T09:52:42.819Z,14.85
2023-04-18T09:55:31.931Z,15.38
2023-04-18T09:58:22.202Z,14.73
2023-04-18T10:01:09.388Z,14.30
2023-04-18T10:03:57.730Z,13.15
2023-04-18T10:06:46.765Z,13.73
2023-04-18T10:09:34.614Z,13.32
2023-04-18T10:12:21.933Z,14.45
2023-04-18T10:15:11.025Z,12.68
2023-04-18T10:18:05.792Z,12.85
2023-04-18T10:21:03.240Z,11.60
2023-04-18T10:23:50.405Z,12.10
2023-04-18T10:26:50.392Z,10.25
2023-04-18T10:29:49.472Z,11.13
2023-04-18T10:32:36.464Z,11.00
2023-04-18T10:35:23.444Z,9.57
2023-04-18T10:38:17.332Z,10.40
2023-04-18T10:41:34.218Z,9.65
2023-04-18T10:44:23.069Z,10.20
2023-04-18T10:47:20.966Z,8.63
2023-04-18T10:50:08.178Z,8.85
2023-04-18T10:52:55.673Z,9.57
2023-04-18T10:55:54.468Z,8.05
2023-04-18T10:58:42.366Z,8.40
2023-04-18T11:01:36.813Z,8.32
2023-04-18T11:04:25.583Z,8.50
2023-04-18T11:07:12.667Z,8.52
2023-04-18T11:10:00.629Z,8.32
2023-04-18T11:12:47.976Z,10.32
2023-04-18T11:15:36.766Z,9.23
2023-04-18T11:18:23.735Z,8.10
2023-04-18T11:21:10.660Z,6.90
2023-04-18T11:23:58.298Z,7.60
2023-04-18T11:26:45.307Z,7.40
2023-04-18T11:29:32.576Z,7.35
2023-04-18T11:32:19.544Z,7.45
2023-04-18T11:35:09.588Z,6.90
2023-04-18T11:37:56.493Z,7.22
2023-04-18T11:40:49.957Z,7.32
2023-04-18T11:43:37.027Z,7.20
2023-04-18T11:46:24.059Z,6.60
2023-04-18T11:49:27.741Z,6.35
2023-04-18T11:52:14.903Z,6.63
2023-04-18T11:55:19.483Z,7.80
2023-04-18T11:58:07.032Z,7.97
2023-04-18T12:00:53.966Z,7.97
2023-04-18T12:03:41.490Z,7.22
2023-04-18T12:06:45.081Z,7.90
2023-04-18T12:09:38.563Z,8.80
2023-04-18T12:12:25.675Z,7.65
2023-04-18T12:15:16.304Z,7.50
2023-04-18T12:18:05.202Z,8.30
2023-04-18T12:20:54.072Z,7.13
2023-04-18T12:23:42.851Z,7.53
2023-04-18T12:26:29.834Z,7.32
2023-04-18T12:29:17.390Z,7.38
2023-04-18T12:32:04.714Z,7.07
2023-04-18T12:34:51.622Z,7.10
2023-04-18T12:37:38.567Z,7.50
2023-04-18T12:40:26.707Z,6.70
2023-04-18T12:43:13.703Z,6.57
2023-04-18T12:46:00.737Z,6.63
2023-04-18T12:48:47.656Z,6.93
2023-04-18T12:51:34.498Z,6.38
2023-04-18T12:54:21.418Z,6.40
2023-04-18T12:57:08.327Z,6.60
2023-04-18T12:59:55.395Z,6.00
2023-04-18T13:02:44.773Z,7.07
2023-04-18T13:05:33.989Z,7.00
2023-04-18T13:08:22.880Z,6.53
2023-04-18T13:11:09.827Z,6.88
2023-04-18T13:13:56.703Z,7.05
2023-04-18T13:16:44.157Z,6.68
2023-04-18T13:19:31.182Z,5.88
2023-04-18T13:22:20.348Z,5.22
2023-04-18T13:25:10.383Z,6.18
2023-04-18T13:27:58.519Z,6.90
2023-04-18T13:30:45.615Z,6.53
2023-04-18T13:33:32.508Z,7.10
2023-04-18T13:36:19.350Z,5.65
2023-04-18T13:39:06.932Z,6.45
2023-04-18T13:41:54.671Z,6.43
2023-04-18T13:44:41.588Z,5.22
2023-04-18T13:47:29.287Z,5.13
2023-04-18T13:50:16.361Z,5.90
2023-04-18T13:53:03.237Z,4.95
2023-04-18T13:55:50.449Z,4.95
2023-04-18T13:58:37.296Z,6.10
2023-04-18T14:01:24.285Z,5.55
2023-04-18T14:04:11.534Z,6.57
2023-04-18T14:06:58.529Z,6.22
2023-04-18T14:09:46.079Z,5.95
2023-04-18T14:12:33.173Z,5.50
2023-04-18T14:15:20.297Z,6.55
2023-04-18T14:18:07.327Z,5.90
2023-04-18T14:20:54.842Z,5.60
2023-04-18T14:23:41.850Z,5.80
2023-04-18T14:26:28.761Z,5.30
2023-04-18T14:29:15.932Z,6.82
2023-04-18T14:32:03.076Z,5.97
2023-04-18T14:34:50.386Z,6.38
2023-04-18T14:37:37.312Z,6.53
2023-04-18T14:40:24.562Z,6.88
2023-04-18T14:43:12.833Z,6.10
2023-04-18T14:46:00.000Z,6.18
2023-04-18T14:48:50.066Z,6.30
2023-04-18T14:51:36.988Z,6.88
2023-04-18T14:54:24.037Z,5.93
2023-04-18T14:57:12.854Z,6.15
2023-04-18T14:59:59.775Z,6.03
2023-04-18T15:02:47.017Z,6.15
2023-04-18T15:05:34.922Z,6.28
2023-04-18T15:08:22.093Z,6.30
2023-04-18T15:11:09.039Z,6.63
2023-04-18T15:13:56.935Z,7.47
2023-04-18T15:16:43.896Z,6.35
2023-04-18T15:19:31.409Z,6.55
2023-04-18T15:22:18.755Z,6.72
2023-04-18T15:25:06.514Z,6.57
2023-04-18T15:27:53.404Z,6.78
2023-04-18T15:30:40.411Z,6.45
2023-04-18T15:33:27.431Z,6.93
2023-04-18T15:36:14.334Z,6.35
2023-04-18T15:39:04.322Z,6.70
2023-04-18T15:41:57.443Z,7.72
2023-04-18T15:44:44.386Z,6.25
2023-04-18T15:47:33.683Z,6.28
2023-04-18T15:50:20.935Z,7.38
2023-04-18T15:53:07.942Z,6.47
2023-04-18T15:55:55.059Z,6.25
2023-04-18T15:58:41.988Z,6.13
2023-04-18T16:01:29.680Z,6.47
2023-04-18T16:04:16.825Z,6.25
2023-04-18T16:07:03.772Z,6.38
2023-04-18T16:09:50.829Z,6.60
2023-04-18T16:12:38.635Z,6.82
2023-04-18T16:15:25.815Z,6.47
2023-04-18T16:18:12.657Z,6.72
2023-04-18T16:20:59.598Z,6.68
2023-04-18T16:23:46.484Z,6.47
2023-04-18T16:26:33.421Z,7.50
2023-04-18T16:29:20.388Z,7.13
2023-04-18T16:32:08.436Z,7.60
2023-04-18T16:34:55.367Z,7.25
2023-04-18T16:37:42.275Z,7.93
2023-04-18T16:40:30.695Z,6.72
2023-04-18T16:43:17.838Z,6.68
2023-04-18T16:46:05.235Z,7.30
2023-04-18T16:48:52.587Z,7.35
2023-04-18T16:51:39.735Z,6.68
2023-04-18T16:54:26.623Z,7.35
2023-04-18T16:57:13.632Z,7.65
2023-04-18T17:00:02.573Z,8.40
2023-04-18T17:02:49.888Z,6.57
2023-04-18T17:05:37.617Z,7.45
2023-04-18T17:08:25.913Z,6.95
2023-04-18T17:11:12.890Z,6.85
2023-04-18T17:13:59.920Z,8.55
2023-04-18T17:16:46.881Z,6.90
2023-04-18T17:19:34.139Z,7.15
2023-04-18T17:22:21.409Z,7.15
2023-04-18T17:25:09.255Z,7.22
2023-04-18T17:27:56.178Z,7.80
2023-04-18T17:30:43.181Z,7.32
2023-04-18T17:33:30.696Z,8.77
2023-04-18T17:36:17.773Z,7.00
2023-04-18T17:39:07.808Z,8.13
2023-04-18T17:41:54.744Z,8.38
2023-04-18T17:44:41.704Z,9.30
2023-04-18T17:47:28.625Z,10.30
2023-04-18T17:50:15.565Z,9.15
2023-04-18T17:53:02.932Z,9.07
2023-04-18T17:55:52.248Z,8.50
2023-04-18T17:58:39.700Z,7.22
2023-04-18T18:01:30.192Z,6.95
2023-04-18T18:04:17.384Z,8.27
2023-04-18T18:07:05.116Z,8.05
2023-04-18T18:09:52.050Z,7.35
2023-04-18T18:12:39.970Z,8.02
2023-04-18T18:15:26.900Z,9.23
2023-04-18T18:18:13.876Z,8.38
2023-04-18T18:21:00.880Z,7.93
2023-04-18T18:23:47.827Z,8.57
2023-04-18T18:26:36.220Z,9.27
2023-04-18T18:29:23.144Z,8.40
2023-04-18T18:32:10.081Z,9.55
2023-04-18T18:34:56.961Z,8.77
2023-04-18T18:37:43.877Z,8.43
2023-04-18T18:40:30.799Z,8.95
2023-04-18T18:43:17.753Z,8.30
2023-04-18T18:46:04.823Z,9.10
2023-04-18T18:48:51.977Z,9.48
2023-04-18T18:51:39.058Z,9.10
2023-04-18T18:54:26.119Z,8.25
2023-04-18T18:57:13.033Z,9.63
2023-04-18T19:00:00.039Z,7.80
2023-04-18T19:02:47.100Z,7.97
2023-04-18T19:05:34.300Z,7.95
2023-04-18T19:08:21.447Z,8.02
2023-04-18T19:11:08.794Z,8.48
2023-04-18T19:13:55.737Z,7.93
2023-04-18T19:16:42.732Z,7.72
2023-04-18T19:19:29.731Z,8.55
2023-04-18T19:22:16.759Z,8.25
2023-04-18T19:25:04.350Z,8.82
2023-04-18T19:27:51.269Z,9.07
2023-04-18T19:30:38.407Z,8.40
2023-04-18T19:33:25.679Z,9.65
2023-04-18T19:36:12.626Z,8.35
2023-04-18T19:38:59.493Z,7.90
2023-04-18T19:41:46.913Z,8.88
2023-04-18T19:44:34.214Z,9.60
2023-04-18T19:47:21.196Z,8.05
2023-04-18T19:50:08.662Z,7.90
2023-04-18T19:52:55.884Z,7.75
2023-04-18T19:55:44.836Z,8.60
2023-04-18T19:58:44.653Z,8.68
2023-04-18T20:01:31.883Z,9.50
2023-04-18T20:04:19.112Z,8.98
2023-04-18T20:07:06.450Z,12.57
2023-04-18T20:09:53.396Z,9.02
2023-04-18T20:12:40.328Z,8.18
2023-04-18T20:15:30.479Z,8.18
2023-04-18T20:18:17.973Z,7.53
2023-04-18T20:21:06.963Z,7.65
2023-04-18T20:23:54.056Z,7.68
2023-04-18T20:26:40.965Z,9.48
2023-04-18T20:29:28.157Z,9.13
2023-04-18T20:32:15.256Z,9.18
2023-04-18T20:35:02.856Z,8.35
2023-04-18T20:37:49.888Z,7.60
2023-04-18T20:40:40.503Z,8.20
2023-04-18T20:43:27.966Z,9.02
2023-04-18T20:46:16.072Z,7.50
2023-04-18T20:49:03.092Z,8.15
2023-04-18T20:51:49.958Z,8.75
2023-04-18T20:54:36.908Z,8.98
2023-04-18T20:57:23.820Z,10.32
2023-04-18T21:00:13.898Z,9.90
2023-04-18T21:03:00.940Z,9.27
2023-04-18T21:05:48.119Z,9.60
2023-04-18T21:08:35.243Z,10.40
2023-04-18T21:11:22.165Z,10.02
2023-04-18T21:14:09.112Z,10.48
2023-04-18T21:16:57.830Z,11.57
2023-04-18T21:19:49.059Z,12.63
2023-04-18T21:22:35.933Z,12.15
2023-04-18T21:25:22.930Z,12.30
2023-04-18T21:28:09.833Z,12.23
2023-04-18T21:30:56.704Z,12.25
2023-04-18T21:33:43.675Z,12.02
2023-04-18T21:36:31.482Z,13.27
2023-04-18T21:39:18.433Z,13.27
2023-04-18T21:42:05.381Z,13.70
2023-04-18T21:44:52.373Z,13.93
2023-04-18T21:47:39.522Z,13.55
2023-04-18T21:50:26.451Z,14.80
2023-04-18T21:53:13.328Z,16.17
2023-04-18T21:56:00.341Z,15.45
2023-04-18T21:58:47.630Z,16.58
2023-04-18T22:01:34.827Z,15.35
2023-04-18T22:04:26.012Z,14.40
2023-04-18T22:07:15.451Z,14.27
2023-04-18T22:10:05.764Z,15.32
2023-04-18T22:12:55.938Z,17.02
2023-04-18T22:15:42.995Z,14.95
2023-04-18T22:18:33.543Z,17.55
2023-04-18T22:21:20.661Z,15.82
2023-04-18T22:24:08.657Z,13.73
2023-04-18T22:26:55.568Z,15.55
2023-04-18T22:29:42.489Z,14.93
2023-04-18T22:32:29.414Z,14.93
2023-04-18T22:35:16.596Z,14.50
2023-04-18T22:38:03.453Z,14.43
2023-04-18T22:40:50.362Z,14.88
2023-04-18T22:43:37.272Z,14.27
2023-04-18T22:46:24.211Z,14.52
2023-04-18T22:49:11.114Z,15.75
2023-04-18T22:51:58.594Z,15.07
2023-04-18T22:54:45.637Z,16.60
2023-04-18T22:57:32.607Z,15.25
2023-04-18T23:00:19.778Z,15.57
2023-04-18T23:03:06.862Z,15.82
2023-04-18T23:05:53.866Z,15.13
2023-04-18T23:08:40.753Z,17.08
2023-04-18T23:11:27.650Z,15.00
2023-04-18T23:14:17.483Z,15.35
2023-04-18T23:17:04.406Z,17.05
2023-04-18T23:19:51.349Z,15.80
2023-04-18T23:22:38.913Z,15.93
2023-04-18T23:25:25.822Z,15.27
2023-04-18T23:28:13.673Z,18.05
2023-04-18T23:31:00.738Z,17.15
2023-04-18T23:33:47.666Z,16.77
2023-04-18T23:36:34.760Z,16.65
2023-04-18T23:39:21.678Z,16.45
2023-04-18T23:42:08.616Z,16.02
2023-04-18T23:44:55.631Z,15.98
2023-04-18T23:47:42.626Z,16.52
2023-04-18T23:50:29.535Z,16.90
2023-04-18T23:53:19.779Z,16.27
2023-04-18T23:56:07.146Z,15.60
2023-04-18T23:58:54.097Z,16.50
